Fourcroy — VMQ6160 — position and weather

sailwx.info

Track history (hours):
 
Tides and Currents Weather Stations Pressure Air Temp Water Temp Dewpoint Dewpoint Depression Visibility Wind Speed Wind Dir Waves Ship Positions

Fourcroy

Last reported at 2015-Oct-31 22:12 UTC. Time now 2016-Feb-09 05:41 UTC.
Position S 12°22' E 130°46'.
Warning: this ship's position is months out of date.

Length 47 m; draft 2.2 m.

Type: Cargo ship. MMSI: 503338000.

Date/timePositionNaut miles runAvg speedWind from/ knotsBaromVisibWave heightAir tempDewpointWater temp
2015-Oct-31 22:12S 12°22' E 130°46'4 6.5
2015-Oct-31 21:33S 12°26' E 130°48'4 3.6
2015-Oct-31 20:32S 12°28' E 130°51'0 0.0
2015-Oct-31 19:31S 12°28' E 130°51'0 0.0
2015-Oct-31 18:31S 12°28' E 130°51'0 0.0
2015-Oct-31 17:31S 12°28' E 130°51'0 0.0
2015-Oct-31 16:31S 12°28' E 130°51'0 0.0
2015-Oct-31 15:31S 12°28' E 130°51'0 0.0
2015-Oct-31 14:31S 12°28' E 130°51'0 0.0
2015-Oct-31 13:31S 12°28' E 130°51'0 0.0
2015-Oct-31 12:31S 12°28' E 130°51'0 0.0
2015-Oct-31 11:31S 12°28' E 130°51'0 0.0
2015-Oct-31 10:31S 12°28' E 130°51'0 0.0
2015-Oct-31 09:31S 12°28' E 130°51'0 0.0
2015-Oct-31 08:31S 12°28' E 130°51'0 0.0
2015-Oct-31 07:31S 12°28' E 130°51'0 0.0
2015-Oct-31 06:28S 12°28' E 130°51'0 0.0
2015-Oct-31 05:28S 12°28' E 130°51'0 0.0
2015-Oct-31 04:31S 12°28' E 130°51'0 0.0
2015-Oct-31 03:31S 12°28' E 130°51'0 0.0
2015-Oct-31 02:31S 12°28' E 130°51'0 0.0
2015-Oct-31 01:31S 12°28' E 130°51'0 0.0
2015-Oct-31 00:31S 12°28' E 130°51'0 0.0
2015-Oct-30 23:31S 12°28' E 130°51'0 0.0
2015-Oct-30 22:31S 12°28' E 130°51'0 0.0
2015-Oct-30 21:31S 12°28' E 130°51'0 0.0
2015-Oct-30 20:31S 12°28' E 130°51'0 0.0
2015-Oct-30 19:31S 12°28' E 130°51'0 0.0
2015-Oct-30 18:31S 12°28' E 130°51'0 0.0
2015-Oct-30 17:31S 12°28' E 130°51'0 0.0
2015-Oct-30 16:31S 12°28' E 130°51'0 0.0
2015-Oct-30 15:31S 12°28' E 130°51'0 0.0
2015-Oct-30 14:31S 12°28' E 130°51'0 0.0
2015-Oct-30 13:31S 12°28' E 130°51'0 0.0
2015-Oct-30 12:31S 12°28' E 130°51'0 0.0
2015-Oct-30 11:31S 12°28' E 130°51'0 0.0
2015-Oct-30 10:31S 12°28' E 130°51'0 0.0
2015-Oct-30 09:31S 12°28' E 130°51'0 0.0
2015-Oct-30 08:31S 12°28' E 130°51'2 1.6
2015-Oct-30 07:33S 12°29' E 130°50'8 8.4
2015-Oct-30 06:33S 12°20' E 130°48'2 1.9
2015-Oct-30 05:33S 12°19' E 130°49'0 0.0
2015-Oct-30 00:30S 12°19' E 130°49'0 0.1
2015-Oct-29 23:33S 12°19' E 130°49'0 0.0
2015-Oct-29 22:33S 12°19' E 130°49'0 0.0
2015-Oct-29 21:33S 12°19' E 130°49'0 0.0
2015-Oct-29 20:33S 12°19' E 130°49'0 0.0
2015-Oct-29 19:33S 12°19' E 130°49'0 0.0
2015-Oct-29 18:33S 12°19' E 130°49'0 0.0
2015-Oct-29 17:33S 12°19' E 130°49'0 0.0
2015-Oct-29 16:33S 12°19' E 130°49'0 0.1
2015-Oct-29 15:33S 12°19' E 130°49'0 0.0
2015-Oct-29 14:33S 12°19' E 130°49'0 0.1
2015-Oct-29 13:33S 12°19' E 130°49'0 0.0
2015-Oct-29 12:33S 12°19' E 130°49'0 0.0
2015-Oct-29 11:33S 12°19' E 130°49'0 0.0
2015-Oct-29 10:33S 12°19' E 130°49'0 0.0
2015-Oct-29 09:33S 12°19' E 130°49'0 0.0
2015-Oct-29 08:33S 12°19' E 130°49'0 0.0
2015-Oct-29 07:33S 12°19' E 130°49'0 0.0
2015-Oct-29 06:33S 12°19' E 130°49'0 0.0
2015-Oct-29 05:32S 12°19' E 130°49'0 0.2
2015-Oct-29 02:32S 12°19' E 130°49'  
Track history (hours):
 
Tides and Currents Weather Stations Pressure Air Temp Water Temp Dewpoint Dewpoint Depression Visibility Wind Speed Wind Dir Waves Ship Positions

Fourcroy

Last reported at 2015-Oct-31 22:12 UTC. Time now 2016-Feb-09 05:41 UTC.
Position S 12°22' E 130°46'.
Warning: this ship's position is months out of date.

Length 47 m; draft 2.2 m.

Type: Cargo ship. MMSI: 503338000.

Date/timePositionNaut miles runAvg speedWind from/ knotsBaromVisibWave heightAir tempDewpointWater temp
2015-Oct-31 22:12S 12°22' E 130°46'4 6.5
2015-Oct-31 21:33S 12°26' E 130°48'4 3.6
2015-Oct-31 20:32S 12°28' E 130°51'0 0.0
2015-Oct-31 19:31S 12°28' E 130°51'0 0.0
2015-Oct-31 18:31S 12°28' E 130°51'0 0.0
2015-Oct-31 17:31S 12°28' E 130°51'0 0.0
2015-Oct-31 16:31S 12°28' E 130°51'0 0.0
2015-Oct-31 15:31S 12°28' E 130°51'0 0.0
2015-Oct-31 14:31S 12°28' E 130°51'0 0.0
2015-Oct-31 13:31S 12°28' E 130°51'0 0.0
2015-Oct-31 12:31S 12°28' E 130°51'0 0.0
2015-Oct-31 11:31S 12°28' E 130°51'0 0.0
2015-Oct-31 10:31S 12°28' E 130°51'0 0.0
2015-Oct-31 09:31S 12°28' E 130°51'0 0.0
2015-Oct-31 08:31S 12°28' E 130°51'0 0.0
2015-Oct-31 07:31S 12°28' E 130°51'0 0.0
2015-Oct-31 06:28S 12°28' E 130°51'0 0.0
2015-Oct-31 05:28S 12°28' E 130°51'0 0.0
2015-Oct-31 04:31S 12°28' E 130°51'0 0.0
2015-Oct-31 03:31S 12°28' E 130°51'0 0.0
2015-Oct-31 02:31S 12°28' E 130°51'0 0.0
2015-Oct-31 01:31S 12°28' E 130°51'0 0.0
2015-Oct-31 00:31S 12°28' E 130°51'0 0.0
2015-Oct-30 23:31S 12°28' E 130°51'0 0.0
2015-Oct-30 22:31S 12°28' E 130°51'0 0.0
2015-Oct-30 21:31S 12°28' E 130°51'0 0.0
2015-Oct-30 20:31S 12°28' E 130°51'0 0.0
2015-Oct-30 19:31S 12°28' E 130°51'0 0.0
2015-Oct-30 18:31S 12°28' E 130°51'0 0.0
2015-Oct-30 17:31S 12°28' E 130°51'0 0.0
2015-Oct-30 16:31S 12°28' E 130°51'0 0.0
2015-Oct-30 15:31S 12°28' E 130°51'0 0.0
2015-Oct-30 14:31S 12°28' E 130°51'0 0.0
2015-Oct-30 13:31S 12°28' E 130°51'0 0.0
2015-Oct-30 12:31S 12°28' E 130°51'0 0.0
2015-Oct-30 11:31S 12°28' E 130°51'0 0.0
2015-Oct-30 10:31S 12°28' E 130°51'0 0.0
2015-Oct-30 09:31S 12°28' E 130°51'0 0.0
2015-Oct-30 08:31S 12°28' E 130°51'2 1.6
2015-Oct-30 07:33S 12°29' E 130°50'8 8.4
2015-Oct-30 06:33S 12°20' E 130°48'2 1.9
2015-Oct-30 05:33S 12°19' E 130°49'0 0.0
2015-Oct-30 00:30S 12°19' E 130°49'0 0.1
2015-Oct-29 23:33S 12°19' E 130°49'0 0.0
2015-Oct-29 22:33S 12°19' E 130°49'0 0.0
2015-Oct-29 21:33S 12°19' E 130°49'0 0.0
2015-Oct-29 20:33S 12°19' E 130°49'0 0.0
2015-Oct-29 19:33S 12°19' E 130°49'0 0.0
2015-Oct-29 18:33S 12°19' E 130°49'0 0.0
2015-Oct-29 17:33S 12°19' E 130°49'0 0.0
2015-Oct-29 16:33S 12°19' E 130°49'0 0.1
2015-Oct-29 15:33S 12°19' E 130°49'0 0.0
2015-Oct-29 14:33S 12°19' E 130°49'0 0.1
2015-Oct-29 13:33S 12°19' E 130°49'0 0.0
2015-Oct-29 12:33S 12°19' E 130°49'0 0.0
2015-Oct-29 11:33S 12°19' E 130°49'0 0.0
2015-Oct-29 10:33S 12°19' E 130°49'0 0.0
2015-Oct-29 09:33S 12°19' E 130°49'0 0.0
2015-Oct-29 08:33S 12°19' E 130°49'0 0.0
2015-Oct-29 07:33S 12°19' E 130°49'0 0.0
2015-Oct-29 06:33S 12°19' E 130°49'0 0.0
2015-Oct-29 05:32S 12°19' E 130°49'0 0.2
2015-Oct-29 02:32S 12°19' E 130°49'  

Dump ship's entire track history